sensor_id;sensor_type;location;lat;lon;timestamp;pressure;altitude;pressure_sealevel;temperature;humidity
9474;BME280;8865;47.636;7.692;2023-07-09T00:00:13;98630.72;;;20.05;100.00
9474;BME280;8865;47.636;7.692;2023-07-09T00:02:40;98631.25;;;20.01;100.00
9474;BME280;8865;47.636;7.692;2023-07-09T00:05:10;98635.09;;;19.98;100.00
9474;BME280;8865;47.636;7.692;2023-07-09T00:07:37;98632.00;;;19.94;100.00
9474;BME280;8865;47.636;7.692;2023-07-09T00:10:03;98623.41;;;19.92;100.00
9474;BME280;8865;47.636;7.692;2023-07-09T00:12:29;98629.53;;;19.93;100.00
9474;BME280;8865;47.636;7.692;2023-07-09T00:14:55;98634.03;;;19.92;100.00
9474;BME280;8865;47.636;7.692;2023-07-09T00:19:52;98633.47;;;19.82;100.00
9474;BME280;8865;47.636;7.692;2023-07-09T00:22:19;98634.63;;;19.79;100.00
9474;BME280;8865;47.636;7.692;2023-07-09T00:24:47;98638.97;;;19.80;100.00
9474;BME280;8865;47.636;7.692;2023-07-09T00:27:16;98633.19;;;19.77;100.00
9474;BME280;8865;47.636;7.692;2023-07-09T00:29:44;98638.50;;;19.77;100.00
9474;BME280;8865;47.636;7.692;2023-07-09T00:32:18;98633.34;;;19.75;100.00
9474;BME280;8865;47.636;7.692;2023-07-09T00:34:47;98635.53;;;19.72;100.00
9474;BME280;8865;47.636;7.692;2023-07-09T00:37:18;98644.22;;;19.66;100.00
9474;BME280;8865;47.636;7.692;2023-07-09T00:39:46;98638.28;;;19.63;100.00
9474;BME280;8865;47.636;7.692;2023-07-09T00:42:14;98639.63;;;19.59;100.00
9474;BME280;8865;47.636;7.692;2023-07-09T00:44:45;98635.72;;;19.55;100.00
9474;BME280;8865;47.636;7.692;2023-07-09T00:47:39;98639.34;;;19.54;100.00
9474;BME280;8865;47.636;7.692;2023-07-09T00:50:19;98639.09;;;19.49;100.00
9474;BME280;8865;47.636;7.692;2023-07-09T00:52:58;98639.44;;;19.46;100.00
9474;BME280;8865;47.636;7.692;2023-07-09T00:55:31;98633.81;;;19.41;100.00
9474;BME280;8865;47.636;7.692;2023-07-09T00:58:03;98638.50;;;19.39;100.00
9474;BME280;8865;47.636;7.692;2023-07-09T01:00:35;98633.72;;;19.34;100.00
9474;BME280;8865;47.636;7.692;2023-07-09T01:03:15;98638.22;;;19.34;100.00
9474;BME280;8865;47.636;7.692;2023-07-09T01:05:45;98635.09;;;19.30;100.00
9474;BME280;8865;47.636;7.692;2023-07-09T01:08:18;98637.75;;;19.30;100.00
9474;BME280;8865;47.636;7.692;2023-07-09T01:10:45;98639.94;;;19.26;100.00
9474;BME280;8865;47.636;7.692;2023-07-09T01:13:12;98638.28;;;19.25;100.00
9474;BME280;8865;47.636;7.692;2023-07-09T01:15:39;98640.47;;;19.22;100.00
9474;BME280;8865;47.636;7.692;2023-07-09T01:18:06;98638.34;;;19.17;100.00
9474;BME280;8865;47.636;7.692;2023-07-09T01:20:33;98644.47;;;19.18;100.00
9474;BME280;8865;47.636;7.692;2023-07-09T01:22:59;98643.66;;;19.17;100.00
9474;BME280;8865;47.636;7.692;2023-07-09T01:25:27;98643.66;;;19.17;100.00
9474;BME280;8865;47.636;7.692;2023-07-09T01:27:54;98643.03;;;19.15;100.00
9474;BME280;8865;47.636;7.692;2023-07-09T01:30:27;98636.41;;;19.11;100.00
9474;BME280;8865;47.636;7.692;2023-07-09T01:32:59;98640.06;;;19.10;100.00
9474;BME280;8865;47.636;7.692;2023-07-09T01:35:28;98645.38;;;19.10;100.00
9474;BME280;8865;47.636;7.692;2023-07-09T01:37:55;98644.56;;;19.09;100.00
9474;BME280;8865;47.636;7.692;2023-07-09T01:40:24;98638.13;;;19.04;100.00
9474;BME280;8865;47.636;7.692;2023-07-09T01:42:51;98644.81;;;19.00;100.00
9474;BME280;8865;47.636;7.692;2023-07-09T01:45:17;98645.97;;;18.97;100.00
9474;BME280;8865;47.636;7.692;2023-07-09T01:47:46;98646.97;;;18.96;100.00
9474;BME280;8865;47.636;7.692;2023-07-09T01:50:12;98644.47;;;18.95;100.00
9474;BME280;8865;47.636;7.692;2023-07-09T01:52:42;98649.97;;;18.93;100.00
9474;BME280;8865;47.636;7.692;2023-07-09T01:55:12;98646.84;;;18.89;100.00
9474;BME280;8865;47.636;7.692;2023-07-09T01:57:38;98655.00;;;18.88;100.00
9474;BME280;8865;47.636;7.692;2023-07-09T02:00:08;98650.03;;;18.85;100.00
9474;BME280;8865;47.636;7.692;2023-07-09T02:02:36;98653.00;;;18.82;100.00
9474;BME280;8865;47.636;7.692;2023-07-09T02:05:05;98657.81;;;18.78;100.00
9474;BME280;8865;47.636;7.692;2023-07-09T02:07:31;98659.38;;;18.72;100.00
9474;BME280;8865;47.636;7.692;2023-07-09T02:09:58;98657.88;;;18.70;100.00
9474;BME280;8865;47.636;7.692;2023-07-09T02:12:25;98668.66;;;18.68;100.00
9474;BME280;8865;47.636;7.692;2023-07-09T02:14:51;98656.03;;;18.70;100.00
9474;BME280;8865;47.636;7.692;2023-07-09T02:17:17;98655.56;;;18.67;100.00
9474;BME280;8865;47.636;7.692;2023-07-09T02:19:44;98654.59;;;18.60;100.00
9474;BME280;8865;47.636;7.692;2023-07-09T02:22:11;98649.66;;;18.56;100.00
9474;BME280;8865;47.636;7.692;2023-07-09T02:24:37;98653.63;;;18.61;100.00
9474;BME280;8865;47.636;7.692;2023-07-09T02:27:07;98644.53;;;18.55;100.00
9474;BME280;8865;47.636;7.692;2023-07-09T02:29:34;98657.31;;;18.51;100.00
9474;BME280;8865;47.636;7.692;2023-07-09T02:32:01;98655.81;;;18.49;100.00
9474;BME280;8865;47.636;7.692;2023-07-09T02:34:29;98656.84;;;18.48;100.00
9474;BME280;8865;47.636;7.692;2023-07-09T02:36:57;98658.66;;;18.47;100.00
9474;BME280;8865;47.636;7.692;2023-07-09T02:39:24;98652.69;;;18.45;100.00
9474;BME280;8865;47.636;7.692;2023-07-09T02:41:51;98657.00;;;18.46;100.00
9474;BME280;8865;47.636;7.692;2023-07-09T02:44:17;98657.00;;;18.46;100.00
9474;BME280;8865;47.636;7.692;2023-07-09T02:46:44;98665.78;;;18.47;100.00
9474;BME280;8865;47.636;7.692;2023-07-09T02:49:12;98661.31;;;18.47;100.00
9474;BME280;8865;47.636;7.692;2023-07-09T02:51:39;98662.31;;;18.46;100.00
9474;BME280;8865;47.636;7.692;2023-07-09T02:54:05;98669.25;;;18.47;100.00
9474;BME280;8865;47.636;7.692;2023-07-09T02:56:32;98670.09;;;18.48;100.00
9474;BME280;8865;47.636;7.692;2023-07-09T02:58:58;98671.91;;;18.47;100.00
9474;BME280;8865;47.636;7.692;2023-07-09T03:01:25;98674.72;;;18.46;100.00
9474;BME280;8865;47.636;7.692;2023-07-09T03:03:53;98680.22;;;18.44;100.00
9474;BME280;8865;47.636;7.692;2023-07-09T03:06:21;98674.91;;;18.44;100.00
9474;BME280;8865;47.636;7.692;2023-07-09T03:08:48;98677.44;;;18.37;100.00
9474;BME280;8865;47.636;7.692;2023-07-09T03:11:15;98679.78;;;18.32;100.00
9474;BME280;8865;47.636;7.692;2023-07-09T03:13:42;98680.94;;;18.30;100.00
9474;BME280;8865;47.636;7.692;2023-07-09T03:16:08;98674.31;;;18.26;100.00
9474;BME280;8865;47.636;7.692;2023-07-09T03:18:34;98679.63;;;18.26;100.00
9474;BME280;8865;47.636;7.692;2023-07-09T03:21:01;98685.78;;;18.26;100.00
9474;BME280;8865;47.636;7.692;2023-07-09T03:23:27;98680.66;;;18.25;100.00
9474;BME280;8865;47.636;7.692;2023-07-09T03:25:54;98683.28;;;18.25;100.00
9474;BME280;8865;47.636;7.692;2023-07-09T03:28:21;98685.09;;;18.24;100.00
9474;BME280;8865;47.636;7.692;2023-07-09T03:30:48;98682.28;;;18.26;100.00
9474;BME280;8865;47.636;7.692;2023-07-09T03:33:16;98682.63;;;18.23;100.00
9474;BME280;8865;47.636;7.692;2023-07-09T03:35:43;98685.59;;;18.19;100.00
9474;BME280;8865;47.636;7.692;2023-07-09T03:38:10;98687.28;;;18.20;100.00
9474;BME280;8865;47.636;7.692;2023-07-09T03:40:37;98686.47;;;18.20;100.00
9474;BME280;8865;47.636;7.692;2023-07-09T03:43:08;98687.63;;;18.17;100.00
9474;BME280;8865;47.636;7.692;2023-07-09T03:45:36;98692.09;;;18.17;100.00
9474;BME280;8865;47.636;7.692;2023-07-09T03:48:04;98691.25;;;18.16;100.00
9474;BME280;8865;47.636;7.692;2023-07-09T03:50:31;98695.59;;;18.09;100.00
9474;BME280;8865;47.636;7.692;2023-07-09T03:52:57;98695.44;;;18.11;100.00
9474;BME280;8865;47.636;7.692;2023-07-09T03:55:23;98694.59;;;18.10;100.00
9474;BME280;8865;47.636;7.692;2023-07-09T03:57:55;98702.88;;;18.07;100.00
9474;BME280;8865;47.636;7.692;2023-07-09T04:00:22;98703.56;;;18.09;100.00
9474;BME280;8865;47.636;7.692;2023-07-09T04:02:48;98702.72;;;18.09;100.00
9474;BME280;8865;47.636;7.692;2023-07-09T04:05:14;98703.38;;;18.11;100.00
9474;BME280;8865;47.636;7.692;2023-07-09T04:07:41;98708.69;;;18.11;100.00
9474;BME280;8865;47.636;7.692;2023-07-09T04:10:07;98700.06;;;18.09;100.00
9474;BME280;8865;47.636;7.692;2023-07-09T04:12:33;98706.50;;;18.14;100.00
9474;BME280;8865;47.636;7.692;2023-07-09T04:15:00;98710.81;;;18.15;100.00
9474;BME280;8865;47.636;7.692;2023-07-09T04:17:26;98713.47;;;18.15;100.00
9474;BME280;8865;47.636;7.692;2023-07-09T04:19:52;98709.66;;;18.18;100.00
9474;BME280;8865;47.636;7.692;2023-07-09T04:22:19;98702.84;;;18.24;100.00
9474;BME280;8865;47.636;7.692;2023-07-09T04:24:45;98709.97;;;18.23;100.00
9474;BME280;8865;47.636;7.692;2023-07-09T04:27:12;98708.47;;;18.20;100.00
9474;BME280;8865;47.636;7.692;2023-07-09T04:29:40;98710.78;;;18.24;100.00
9474;BME280;8865;47.636;7.692;2023-07-09T04:32:07;98708.09;;;18.32;100.00
9474;BME280;8865;47.636;7.692;2023-07-09T04:34:37;98707.94;;;18.33;100.00
9474;BME280;8865;47.636;7.692;2023-07-09T04:37:10;98710.94;;;18.38;100.00
9474;BME280;8865;47.636;7.692;2023-07-09T04:39:38;98709.72;;;18.41;100.00
9474;BME280;8865;47.636;7.692;2023-07-09T04:42:05;98705.75;;;18.45;100.00
9474;BME280;8865;47.636;7.692;2023-07-09T04:44:32;98694.44;;;18.51;100.00
9474;BME280;8865;47.636;7.692;2023-07-09T04:46:58;98701.53;;;18.59;100.00
9474;BME280;8865;47.636;7.692;2023-07-09T04:49:24;98699.53;;;18.61;100.00
9474;BME280;8865;47.636;7.692;2023-07-09T04:51:50;98690.72;;;18.69;100.00
9474;BME280;8865;47.636;7.692;2023-07-09T04:54:16;98691.69;;;18.76;100.00
9474;BME280;8865;47.636;7.692;2023-07-09T04:56:42;98689.97;;;18.83;100.00
9474;BME280;8865;47.636;7.692;2023-07-09T04:59:11;98689.50;;;18.88;100.00
9474;BME280;8865;47.636;7.692;2023-07-09T05:01:37;98687.13;;;18.93;100.00
9474;BME280;8865;47.636;7.692;2023-07-09T05:04:04;98684.78;;;18.98;100.00
9474;BME280;8865;47.636;7.692;2023-07-09T05:06:30;98687.91;;;19.02;100.00
9474;BME280;8865;47.636;7.692;2023-07-09T05:08:56;98686.22;;;19.09;100.00
9474;BME280;8865;47.636;7.692;2023-07-09T05:11:22;98683.50;;;19.17;100.00
9474;BME280;8865;47.636;7.692;2023-07-09T05:13:48;98680.13;;;19.23;100.00
9474;BME280;8865;47.636;7.692;2023-07-09T05:16:15;98670.28;;;19.32;100.00
9474;BME280;8865;47.636;7.692;2023-07-09T05:18:41;98682.00;;;19.38;100.00
9474;BME280;8865;47.636;7.692;2023-07-09T05:21:07;98680.28;;;19.45;100.00
9474;BME280;8865;47.636;7.692;2023-07-09T05:23:33;98684.06;;;19.51;100.00
9474;BME280;8865;47.636;7.692;2023-07-09T05:26:01;98668.84;;;19.59;100.00
9474;BME280;8865;47.636;7.692;2023-07-09T05:28:28;98682.91;;;19.68;100.00
9474;BME280;8865;47.636;7.692;2023-07-09T05:30:55;98682.00;;;19.76;100.00
9474;BME280;8865;47.636;7.692;2023-07-09T05:33:21;98677.66;;;19.83;100.00
9474;BME280;8865;47.636;7.692;2023-07-09T05:35:47;98676.09;;;19.89;100.00
9474;BME280;8865;47.636;7.692;2023-07-09T05:38:14;98675.34;;;19.95;100.00
9474;BME280;8865;47.636;7.692;2023-07-09T05:40:41;98670.16;;;20.02;100.00
9474;BME280;8865;47.636;7.692;2023-07-09T05:43:08;98673.56;;;20.10;100.00
9474;BME280;8865;47.636;7.692;2023-07-09T05:45:35;98673.72;;;20.24;100.00
9474;BME280;8865;47.636;7.692;2023-07-09T05:48:01;98677.09;;;20.32;100.00
9474;BME280;8865;47.636;7.692;2023-07-09T05:50:28;98669.69;;;20.43;100.00
9474;BME280;8865;47.636;7.692;2023-07-09T05:52:54;98677.91;;;20.48;100.00
9474;BME280;8865;47.636;7.692;2023-07-09T05:55:20;98674.75;;;20.59;100.00
9474;BME280;8865;47.636;7.692;2023-07-09T05:57:46;98664.69;;;20.69;100.00
9474;BME280;8865;47.636;7.692;2023-07-09T06:00:13;98667.03;;;20.79;100.00
9474;BME280;8865;47.636;7.692;2023-07-09T06:02:40;98667.56;;;20.90;100.00
9474;BME280;8865;47.636;7.692;2023-07-09T06:05:06;98667.25;;;20.99;100.00
9474;BME280;8865;47.636;7.692;2023-07-09T06:07:37;98659.97;;;21.08;100.00
9474;BME280;8865;47.636;7.692;2023-07-09T06:10:08;98665.81;;;21.18;100.00
9474;BME280;8865;47.636;7.692;2023-07-09T06:12:34;98663.66;;;21.29;100.00
9474;BME280;8865;47.636;7.692;2023-07-09T06:15:01;98657.81;;;21.40;100.00
9474;BME280;8865;47.636;7.692;2023-07-09T06:17:27;98653.00;;;21.50;100.00
9474;BME280;8865;47.636;7.692;2023-07-09T06:19:53;98658.81;;;21.61;100.00
9474;BME280;8865;47.636;7.692;2023-07-09T06:22:19;98651.88;;;21.66;100.00
9474;BME280;8865;47.636;7.692;2023-07-09T06:24:46;98643.34;;;21.77;100.00
9474;BME280;8865;47.636;7.692;2023-07-09T06:27:12;98639.09;;;21.90;100.00
9474;BME280;8865;47.636;7.692;2023-07-09T06:29:38;98642.25;;;22.00;100.00
9474;BME280;8865;47.636;7.692;2023-07-09T06:32:04;98634.53;;;22.12;100.00
9474;BME280;8865;47.636;7.692;2023-07-09T06:34:30;98634.16;;;22.22;100.00
9474;BME280;8865;47.636;7.692;2023-07-09T06:36:57;98646.59;;;22.36;100.00
9474;BME280;8865;47.636;7.692;2023-07-09T06:39:23;98641.66;;;22.46;100.00
9474;BME280;8865;47.636;7.692;2023-07-09T06:41:49;98643.97;;;22.56;100.00
9474;BME280;8865;47.636;7.692;2023-07-09T06:44:15;98640.53;;;22.69;100.00
9474;BME280;8865;47.636;7.692;2023-07-09T06:46:41;98635.22;;;22.82;100.00
9474;BME280;8865;47.636;7.692;2023-07-09T06:49:08;98642.22;;;22.97;100.00
9474;BME280;8865;47.636;7.692;2023-07-09T06:51:34;98634.00;;;23.05;100.00
9474;BME280;8865;47.636;7.692;2023-07-09T06:54:00;98627.88;;;23.11;100.00
9474;BME280;8865;47.636;7.692;2023-07-09T06:56:26;98627.47;;;23.28;100.00
9474;BME280;8865;47.636;7.692;2023-07-09T06:58:52;98627.69;;;23.40;100.00
9474;BME280;8865;47.636;7.692;2023-07-09T07:01:19;98629.53;;;23.52;100.00
9474;BME280;8865;47.636;7.692;2023-07-09T07:03:45;98623.34;;;23.72;100.00
9474;BME280;8865;47.636;7.692;2023-07-09T07:06:11;98626.00;;;23.79;100.00
9474;BME280;8865;47.636;7.692;2023-07-09T07:08:37;98627.03;;;23.98;100.00
9474;BME280;8865;47.636;7.692;2023-07-09T07:11:04;98617.94;;;24.05;100.00
9474;BME280;8865;47.636;7.692;2023-07-09T07:13:36;98622.00;;;24.21;100.00
9474;BME280;8865;47.636;7.692;2023-07-09T07:16:05;98626.50;;;24.34;100.00
9474;BME280;8865;47.636;7.692;2023-07-09T07:18:40;98615.31;;;24.44;100.00
9474;BME280;8865;47.636;7.692;2023-07-09T07:21:07;98611.63;;;24.45;100.00
9474;BME280;8865;47.636;7.692;2023-07-09T07:23:33;98612.63;;;24.57;100.00
9474;BME280;8865;47.636;7.692;2023-07-09T07:25:59;98599.81;;;24.59;100.00
9474;BME280;8865;47.636;7.692;2023-07-09T07:28:25;98606.13;;;24.72;100.00
9474;BME280;8865;47.636;7.692;2023-07-09T07:31:04;98605.66;;;24.82;100.00
9474;BME280;8865;47.636;7.692;2023-07-09T07:33:30;98611.38;;;24.92;100.00
9474;BME280;8865;47.636;7.692;2023-07-09T07:35:57;98605.94;;;24.99;100.00
9474;BME280;8865;47.636;7.692;2023-07-09T07:38:23;98604.22;;;25.11;100.00
9474;BME280;8865;47.636;7.692;2023-07-09T07:40:49;98605.13;;;25.23;100.00
9474;BME280;8865;47.636;7.692;2023-07-09T07:43:15;98606.22;;;25.47;100.00
9474;BME280;8865;47.636;7.692;2023-07-09T07:45:43;98613.50;;;25.40;100.00
9474;BME280;8865;47.636;7.692;2023-07-09T07:48:10;98607.84;;;25.48;100.00
9474;BME280;8865;47.636;7.692;2023-07-09T07:50:36;98604.97;;;25.69;100.00
9474;BME280;8865;47.636;7.692;2023-07-09T07:53:04;98607.75;;;25.80;100.00
9474;BME280;8865;47.636;7.692;2023-07-09T07:55:30;98605.59;;;25.89;100.00
9474;BME280;8865;47.636;7.692;2023-07-09T07:57:56;98604.22;;;26.05;100.00
9474;BME280;8865;47.636;7.692;2023-07-09T08:00:23;98610.09;;;26.14;100.00
9474;BME280;8865;47.636;7.692;2023-07-09T08:02:49;98608.00;;;26.16;100.00
9474;BME280;8865;47.636;7.692;2023-07-09T08:05:15;98601.88;;;26.27;100.00
9474;BME280;8865;47.636;7.692;2023-07-09T08:07:42;98608.81;;;26.35;100.00
9474;BME280;8865;47.636;7.692;2023-07-09T08:10:08;98603.59;;;26.40;100.00
9474;BME280;8865;47.636;7.692;2023-07-09T08:12:34;98601.53;;;26.54;100.00
9474;BME280;8865;47.636;7.692;2023-07-09T08:15:00;98600.63;;;26.60;100.00
9474;BME280;8865;47.636;7.692;2023-07-09T08:17:26;98595.69;;;26.76;100.00
9474;BME280;8865;47.636;7.692;2023-07-09T08:19:53;98597.94;;;26.90;100.00
9474;BME280;8865;47.636;7.692;2023-07-09T08:22:21;98593.03;;;26.99;100.00
9474;BME280;8865;47.636;7.692;2023-07-09T08:24:50;98599.25;;;27.12;100.00
9474;BME280;8865;47.636;7.692;2023-07-09T08:27:18;98598.69;;;27.21;100.00
9474;BME280;8865;47.636;7.692;2023-07-09T08:29:44;98601.41;;;27.33;100.00
9474;BME280;8865;47.636;7.692;2023-07-09T08:32:11;98596.84;;;27.34;100.00
9474;BME280;8865;47.636;7.692;2023-07-09T08:34:39;98598.63;;;27.40;100.00
9474;BME280;8865;47.636;7.692;2023-07-09T08:37:06;98587.75;;;27.47;100.00
9474;BME280;8865;47.636;7.692;2023-07-09T08:39:33;98592.91;;;27.60;100.00
9474;BME280;8865;47.636;7.692;2023-07-09T08:42:28;98594.75;;;27.83;100.00
9474;BME280;8865;47.636;7.692;2023-07-09T08:45:09;98598.59;;;28.11;100.00
9474;BME280;8865;47.636;7.692;2023-07-09T08:50:35;98602.09;;;28.11;100.00
9474;BME280;8865;47.636;7.692;2023-07-09T08:53:04;98592.41;;;28.27;100.00
9474;BME280;8865;47.636;7.692;2023-07-09T08:55:32;98599.41;;;28.40;100.00
9474;BME280;8865;47.636;7.692;2023-07-09T08:58:24;98597.50;;;28.53;100.00
9474;BME280;8865;47.636;7.692;2023-07-09T09:00:56;98597.06;;;28.73;100.00
9474;BME280;8865;47.636;7.692;2023-07-09T09:06:14;98580.25;;;29.16;98.79
9474;BME280;8865;47.636;7.692;2023-07-09T09:08:47;98578.06;;;29.47;100.00
9474;BME280;8865;47.636;7.692;2023-07-09T09:13:55;98578.91;;;29.70;94.06
9474;BME280;8865;47.636;7.692;2023-07-09T09:16:31;98572.41;;;29.66;94.31
9474;BME280;8865;47.636;7.692;2023-07-09T09:18:59;98576.59;;;29.96;94.80
9474;BME280;8865;47.636;7.692;2023-07-09T09:21:36;98577.97;;;30.20;100.00
9474;BME280;8865;47.636;7.692;2023-07-09T09:24:19;98568.97;;;30.37;93.14
9474;BME280;8865;47.636;7.692;2023-07-09T09:26:48;98569.53;;;30.66;89.85
9474;BME280;8865;47.636;7.692;2023-07-09T09:29:16;98569.75;;;30.59;81.89
9474;BME280;8865;47.636;7.692;2023-07-09T09:31:49;98568.56;;;30.50;79.78
9474;BME280;8865;47.636;7.692;2023-07-09T09:34:26;98563.47;;;30.54;77.53
9474;BME280;8865;47.636;7.692;2023-07-09T09:36:53;98572.03;;;30.73;76.43
9474;BME280;8865;47.636;7.692;2023-07-09T09:39:20;98570.06;;;30.95;91.22
9474;BME280;8865;47.636;7.692;2023-07-09T09:41:47;98565.34;;;31.13;74.74
9474;BME280;8865;47.636;7.692;2023-07-09T09:44:24;98572.03;;;31.00;72.80
9474;BME280;8865;47.636;7.692;2023-07-09T09:46:50;98576.47;;;30.84;76.17
9474;BME280;8865;47.636;7.692;2023-07-09T09:49:17;98572.53;;;30.97;78.12
9474;BME280;8865;47.636;7.692;2023-07-09T09:51:46;98575.56;;;31.38;84.99
9474;BME280;8865;47.636;7.692;2023-07-09T09:54:20;98577.16;;;31.72;76.54
9474;BME280;8865;47.636;7.692;2023-07-09T09:56:49;98569.38;;;31.96;67.78
9474;BME280;8865;47.636;7.692;2023-07-09T09:59:19;98573.19;;;32.00;70.85
9474;BME280;8865;47.636;7.692;2023-07-09T10:01:46;98577.31;;;32.13;67.45
9474;BME280;8865;47.636;7.692;2023-07-09T10:04:17;98565.47;;;32.24;70.26
9474;BME280;8865;47.636;7.692;2023-07-09T10:06:52;98571.22;;;32.53;74.18
9474;BME280;8865;47.636;7.692;2023-07-09T10:12:36;98566.63;;;32.64;63.23
9474;BME280;8865;47.636;7.692;2023-07-09T10:21:46;98538.34;;;33.53;71.37
9474;BME280;8865;47.636;7.692;2023-07-09T10:27:16;98547.56;;;33.67;57.31
9474;BME280;8865;47.636;7.692;2023-07-09T10:32:33;98543.50;;;33.54;52.50
9474;BME280;8865;47.636;7.692;2023-07-09T10:35:29;98547.84;;;33.66;52.81
9474;BME280;8865;47.636;7.692;2023-07-09T10:40:37;98531.00;;;34.29;49.73
9474;BME280;8865;47.636;7.692;2023-07-09T10:43:13;98538.06;;;34.69;53.58
9474;BME280;8865;47.636;7.692;2023-07-09T10:45:54;98537.44;;;34.83;47.56
9474;BME280;8865;47.636;7.692;2023-07-09T10:48:36;98528.41;;;34.93;46.88
9474;BME280;8865;47.636;7.692;2023-07-09T10:51:05;98532.06;;;35.36;47.98
9474;BME280;8865;47.636;7.692;2023-07-09T10:53:56;98537.38;;;35.71;48.52
9474;BME280;8865;47.636;7.692;2023-07-09T10:56:28;98538.63;;;35.84;44.32
9474;BME280;8865;47.636;7.692;2023-07-09T11:01:45;98531.72;;;35.91;42.68
9474;BME280;8865;47.636;7.692;2023-07-09T11:07:07;98538.97;;;36.58;38.97
9474;BME280;8865;47.636;7.692;2023-07-09T11:09:40;98534.78;;;36.47;38.87
9474;BME280;8865;47.636;7.692;2023-07-09T11:15:15;98535.84;;;36.84;40.95
9474;BME280;8865;47.636;7.692;2023-07-09T11:17:45;98532.94;;;36.94;44.51
9474;BME280;8865;47.636;7.692;2023-07-09T11:20:20;98537.53;;;37.13;43.04
9474;BME280;8865;47.636;7.692;2023-07-09T11:23:01;98528.84;;;37.11;40.65
9474;BME280;8865;47.636;7.692;2023-07-09T11:25:41;98517.38;;;37.56;40.53
9474;BME280;8865;47.636;7.692;2023-07-09T11:28:08;98519.34;;;38.19;40.08
9474;BME280;8865;47.636;7.692;2023-07-09T11:30:50;98519.09;;;38.66;37.25
9474;BME280;8865;47.636;7.692;2023-07-09T11:33:27;98520.84;;;39.16;38.29
9474;BME280;8865;47.636;7.692;2023-07-09T11:36:09;98524.81;;;39.41;34.45
9474;BME280;8865;47.636;7.692;2023-07-09T11:38:44;98523.66;;;39.74;37.11
9474;BME280;8865;47.636;7.692;2023-07-09T11:44:12;98521.97;;;38.92;32.09
9474;BME280;8865;47.636;7.692;2023-07-09T11:46:51;98519.91;;;38.98;32.30
9474;BME280;8865;47.636;7.692;2023-07-09T11:49:21;98510.81;;;38.89;32.50
9474;BME280;8865;47.636;7.692;2023-07-09T11:51:54;98519.50;;;39.45;30.94
9474;BME280;8865;47.636;7.692;2023-07-09T11:54:21;98520.72;;;39.70;34.01
9474;BME280;8865;47.636;7.692;2023-07-09T11:56:56;98505.00;;;39.44;32.80
9474;BME280;8865;47.636;7.692;2023-07-09T11:59:22;98507.41;;;39.46;34.05
9474;BME280;8865;47.636;7.692;2023-07-09T12:01:48;98505.88;;;39.54;32.01
9474;BME280;8865;47.636;7.692;2023-07-09T12:04:20;98507.34;;;39.77;34.56
9474;BME280;8865;47.636;7.692;2023-07-09T12:06:47;98495.25;;;39.70;30.90
9474;BME280;8865;47.636;7.692;2023-07-09T12:09:16;98501.69;;;39.65;29.41
9474;BME280;8865;47.636;7.692;2023-07-09T12:11:45;98494.25;;;39.65;29.49
9474;BME280;8865;47.636;7.692;2023-07-09T12:14:22;98492.22;;;39.80;27.04
9474;BME280;8865;47.636;7.692;2023-07-09T12:16:52;98484.50;;;39.42;28.91
9474;BME280;8865;47.636;7.692;2023-07-09T12:19:21;98480.31;;;40.20;36.92
9474;BME280;8865;47.636;7.692;2023-07-09T12:21:57;98483.38;;;40.35;29.63
9474;BME280;8865;47.636;7.692;2023-07-09T12:24:28;98479.97;;;40.65;29.38
9474;BME280;8865;47.636;7.692;2023-07-09T12:26:59;98477.56;;;41.19;29.99
9474;BME280;8865;47.636;7.692;2023-07-09T12:29:34;98472.41;;;41.48;28.04
9474;BME280;8865;47.636;7.692;2023-07-09T12:32:12;98460.69;;;41.59;27.48
9474;BME280;8865;47.636;7.692;2023-07-09T12:34:39;98459.59;;;41.82;29.65
9474;BME280;8865;47.636;7.692;2023-07-09T12:37:12;98449.63;;;42.19;30.58
9474;BME280;8865;47.636;7.692;2023-07-09T12:39:39;98457.78;;;42.61;28.97
9474;BME280;8865;47.636;7.692;2023-07-09T12:42:12;98450.78;;;43.22;29.63
9474;BME280;8865;47.636;7.692;2023-07-09T12:44:40;98446.50;;;43.12;26.53
9474;BME280;8865;47.636;7.692;2023-07-09T12:47:12;98447.97;;;43.72;28.45
9474;BME280;8865;47.636;7.692;2023-07-09T12:49:42;98446.06;;;44.00;26.08
9474;BME280;8865;47.636;7.692;2023-07-09T12:52:16;98445.03;;;43.27;22.47
9474;BME280;8865;47.636;7.692;2023-07-09T12:54:51;98441.88;;;42.67;24.81
9474;BME280;8865;47.636;7.692;2023-07-09T12:57:18;98438.28;;;42.67;25.15
9474;BME280;8865;47.636;7.692;2023-07-09T12:59:45;98430.97;;;42.37;24.09
9474;BME280;8865;47.636;7.692;2023-07-09T13:02:19;98424.50;;;42.21;25.43
9474;BME280;8865;47.636;7.692;2023-07-09T13:04:48;98422.78;;;42.62;28.33
9474;BME280;8865;47.636;7.692;2023-07-09T13:07:35;98420.19;;;42.90;29.60
9474;BME280;8865;47.636;7.692;2023-07-09T13:10:24;98422.00;;;42.86;29.25
9474;BME280;8865;47.636;7.692;2023-07-09T13:12:59;98417.09;;;42.46;28.53
9474;BME280;8865;47.636;7.692;2023-07-09T13:15:40;98412.56;;;42.17;29.35
9474;BME280;8865;47.636;7.692;2023-07-09T13:18:13;98417.94;;;41.92;30.27
9474;BME280;8865;47.636;7.692;2023-07-09T13:20:41;98419.53;;;41.72;29.42
9474;BME280;8865;47.636;7.692;2023-07-09T13:23:14;98420.25;;;41.60;28.54
9474;BME280;8865;47.636;7.692;2023-07-09T13:25:41;98407.50;;;41.55;30.69
9474;BME280;8865;47.636;7.692;2023-07-09T13:28:27;98413.66;;;41.52;28.21
9474;BME280;8865;47.636;7.692;2023-07-09T13:30:57;98410.47;;;41.50;nan
9474;BME280;8865;47.636;7.692;2023-07-09T13:33:24;98403.13;;;41.54;29.50
9474;BME280;8865;47.636;7.692;2023-07-09T13:35:50;98400.81;;;41.44;28.37
9474;BME280;8865;47.636;7.692;2023-07-09T13:38:21;98399.47;;;40.73;25.58
9474;BME280;8865;47.636;7.692;2023-07-09T13:40:51;98397.59;;;40.65;30.85
9474;BME280;8865;47.636;7.692;2023-07-09T13:43:33;98397.59;;;40.65;31.18
9474;BME280;8865;47.636;7.692;2023-07-09T13:46:02;98389.16;;;40.70;36.91
9474;BME280;8865;47.636;7.692;2023-07-09T13:48:32;98388.88;;;40.63;26.25
9474;BME280;8865;47.636;7.692;2023-07-09T13:51:00;98378.66;;;40.72;28.00
9474;BME280;8865;47.636;7.692;2023-07-09T13:53:30;98376.91;;;40.67;24.31
9474;BME280;8865;47.636;7.692;2023-07-09T13:55:57;98381.22;;;40.04;24.97
9474;BME280;8865;47.636;7.692;2023-07-09T13:58:26;98375.91;;;39.72;26.88
9474;BME280;8865;47.636;7.692;2023-07-09T14:01:08;98362.84;;;40.04;25.68
9474;BME280;8865;47.636;7.692;2023-07-09T14:03:35;98367.00;;;40.19;25.65
9474;BME280;8865;47.636;7.692;2023-07-09T14:06:02;98364.56;;;40.26;25.11